sensor_id;sensor_type;location;lat;lon;timestamp;pressure;altitude;pressure_sealevel;temperature;humidity
21433;BME280;18592;49.708;10.900;2023-04-24T00:00:57;97557.97;;;17.44;44.43
21433;BME280;18592;49.708;10.900;2023-04-24T00:03:02;97547.28;;;17.42;44.62
21433;BME280;18592;49.708;10.900;2023-04-24T00:05:05;97551.97;;;17.42;45.04
21433;BME280;18592;49.708;10.900;2023-04-24T00:07:10;97550.69;;;17.39;44.77
21433;BME280;18592;49.708;10.900;2023-04-24T00:09:11;97552.63;;;17.39;44.64
21433;BME280;18592;49.708;10.900;2023-04-24T00:11:13;97551.00;;;17.38;44.52
21433;BME280;18592;49.708;10.900;2023-04-24T00:13:14;97543.88;;;17.37;44.59
21433;BME280;18592;49.708;10.900;2023-04-24T00:15:16;97543.88;;;17.37;44.52
21433;BME280;18592;49.708;10.900;2023-04-24T00:17:18;97533.47;;;17.34;44.68
21433;BME280;18592;49.708;10.900;2023-04-24T00:19:22;97544.00;;;17.32;44.60
21433;BME280;18592;49.708;10.900;2023-04-24T00:21:24;97542.72;;;17.29;44.83
21433;BME280;18592;49.708;10.900;2023-04-24T00:23:26;97544.66;;;17.29;44.61
21433;BME280;18592;49.708;10.900;2023-04-24T00:25:28;97545.78;;;17.28;44.88
21433;BME280;18592;49.708;10.900;2023-04-24T00:27:29;97554.84;;;17.28;44.67
21433;BME280;18592;49.708;10.900;2023-04-24T00:29:31;97541.06;;;17.28;44.38
21433;BME280;18592;49.708;10.900;2023-04-24T00:31:33;97539.78;;;17.26;44.89
21433;BME280;18592;49.708;10.900;2023-04-24T00:33:36;97557.13;;;17.26;44.76
21433;BME280;18592;49.708;10.900;2023-04-24T00:35:37;97557.44;;;17.25;44.71
21433;BME280;18592;49.708;10.900;2023-04-24T00:37:39;97564.88;;;17.24;44.75
21433;BME280;18592;49.708;10.900;2023-04-24T00:39:40;97565.22;;;17.23;44.92
21433;BME280;18592;49.708;10.900;2023-04-24T00:41:42;97560.81;;;17.22;44.83
21433;BME280;18592;49.708;10.900;2023-04-24T00:43:44;97555.66;;;17.20;44.97
21433;BME280;18592;49.708;10.900;2023-04-24T00:45:46;97556.44;;;17.21;45.25
21433;BME280;18592;49.708;10.900;2023-04-24T00:47:48;97561.47;;;17.19;45.04
21433;BME280;18592;49.708;10.900;2023-04-24T00:49:49;97550.78;;;17.17;45.25
21433;BME280;18592;49.708;10.900;2023-04-24T00:51:51;97540.88;;;17.16;45.40
21433;BME280;18592;49.708;10.900;2023-04-24T00:53:52;97547.53;;;17.15;45.37
21433;BME280;18592;49.708;10.900;2023-04-24T00:55:54;97546.72;;;17.14;45.19
21433;BME280;18592;49.708;10.900;2023-04-24T00:57:55;97545.41;;;17.12;45.26
21433;BME280;18592;49.708;10.900;2023-04-24T00:59:57;97544.59;;;17.11;45.52
21433;BME280;18592;49.708;10.900;2023-04-24T01:01:59;97545.22;;;17.08;45.10
21433;BME280;18592;49.708;10.900;2023-04-24T01:04:01;97536.13;;;17.08;45.84
21433;BME280;18592;49.708;10.900;2023-04-24T01:06:04;97538.41;;;17.06;45.80
21433;BME280;18592;49.708;10.900;2023-04-24T01:08:06;97538.72;;;17.04;45.73
21433;BME280;18592;49.708;10.900;2023-04-24T01:10:08;97535.50;;;17.02;45.77
21433;BME280;18592;49.708;10.900;2023-04-24T01:12:10;97544.38;;;16.99;45.75
21433;BME280;18592;49.708;10.900;2023-04-24T01:14:11;97552.94;;;16.98;45.70
21433;BME280;18592;49.708;10.900;2023-04-24T01:16:14;97546.31;;;16.99;45.68
21433;BME280;18592;49.708;10.900;2023-04-24T01:18:16;97552.16;;;16.97;45.92
21433;BME280;18592;49.708;10.900;2023-04-24T01:20:18;97556.34;;;16.95;45.95
21433;BME280;18592;49.708;10.900;2023-04-24T01:22:20;97550.03;;;16.94;45.95
21433;BME280;18592;49.708;10.900;2023-04-24T01:24:22;97545.63;;;16.93;45.92
21433;BME280;18592;49.708;10.900;2023-04-24T01:26:23;97544.03;;;16.92;45.84
21433;BME280;18592;49.708;10.900;2023-04-24T01:28:26;97542.06;;;16.93;45.60
21433;BME280;18592;49.708;10.900;2023-04-24T01:30:28;97544.03;;;16.92;45.82
21433;BME280;18592;49.708;10.900;2023-04-24T01:32:32;97549.84;;;16.91;45.78
21433;BME280;18592;49.708;10.900;2023-04-24T01:34:34;97551.78;;;16.90;45.93
21433;BME280;18592;49.708;10.900;2023-04-24T01:36:36;97540.59;;;16.87;45.63
21433;BME280;18592;49.708;10.900;2023-04-24T01:38:38;97548.53;;;16.88;45.86
21433;BME280;18592;49.708;10.900;2023-04-24T01:40:39;97543.34;;;16.87;45.78
21433;BME280;18592;49.708;10.900;2023-04-24T01:42:41;97542.53;;;16.86;46.17
21433;BME280;18592;49.708;10.900;2023-04-24T01:44:44;97545.63;;;16.85;45.86
21433;BME280;18592;49.708;10.900;2023-04-24T01:46:46;97542.03;;;16.84;46.01
21433;BME280;18592;49.708;10.900;2023-04-24T01:48:48;97539.59;;;16.83;46.14
21433;BME280;18592;49.708;10.900;2023-04-24T01:50:49;97539.59;;;16.83;46.12
21433;BME280;18592;49.708;10.900;2023-04-24T01:52:51;97542.66;;;16.81;46.20
21433;BME280;18592;49.708;10.900;2023-04-24T01:54:52;97538.28;;;16.80;46.16
21433;BME280;18592;49.708;10.900;2023-04-24T01:56:54;97539.44;;;16.79;46.25
21433;BME280;18592;49.708;10.900;2023-04-24T01:58:56;97541.69;;;16.77;46.15
21433;BME280;18592;49.708;10.900;2023-04-24T02:00:58;97538.94;;;16.77;46.29
21433;BME280;18592;49.708;10.900;2023-04-24T02:03:00;97534.53;;;16.76;46.46
21433;BME280;18592;49.708;10.900;2023-04-24T02:05:05;97525.78;;;16.74;46.49
21433;BME280;18592;49.708;10.900;2023-04-24T02:07:10;97529.34;;;16.75;46.33
21433;BME280;18592;49.708;10.900;2023-04-24T02:09:11;97523.34;;;16.73;46.20
21433;BME280;18592;49.708;10.900;2023-04-24T02:11:13;97519.47;;;16.74;46.21
21433;BME280;18592;49.708;10.900;2023-04-24T02:13:14;97520.91;;;16.71;45.94
21433;BME280;18592;49.708;10.900;2023-04-24T02:15:16;97519.00;;;16.72;45.88
21433;BME280;18592;49.708;10.900;2023-04-24T02:17:18;97514.59;;;16.71;46.17
21433;BME280;18592;49.708;10.900;2023-04-24T02:19:20;97516.53;;;16.70;45.96
21433;BME280;18592;49.708;10.900;2023-04-24T02:21:24;97511.34;;;16.69;46.09
21433;BME280;18592;49.708;10.900;2023-04-24T02:23:28;97513.63;;;16.67;45.88
21433;BME280;18592;49.708;10.900;2023-04-24T02:25:29;97513.09;;;16.65;46.87
21433;BME280;18592;49.708;10.900;2023-04-24T02:27:31;97505.66;;;16.65;46.24
21433;BME280;18592;49.708;10.900;2023-04-24T02:29:32;97514.25;;;16.64;46.49
21433;BME280;18592;49.708;10.900;2023-04-24T02:31:34;97504.06;;;16.64;46.10
21433;BME280;18592;49.708;10.900;2023-04-24T02:33:35;97508.41;;;16.65;46.41
21433;BME280;18592;49.708;10.900;2023-04-24T02:35:37;97496.91;;;16.63;46.39
21433;BME280;18592;49.708;10.900;2023-04-24T02:37:39;97504.84;;;16.65;46.38
21433;BME280;18592;49.708;10.900;2023-04-24T02:39:40;97501.94;;;16.61;46.67
21433;BME280;18592;49.708;10.900;2023-04-24T02:41:43;97501.44;;;16.59;46.63
21433;BME280;18592;49.708;10.900;2023-04-24T02:43:44;97498.97;;;16.58;46.50
21433;BME280;18592;49.708;10.900;2023-04-24T02:45:46;97499.31;;;16.56;46.67
21433;BME280;18592;49.708;10.900;2023-04-24T02:47:47;97498.81;;;16.54;46.46
21433;BME280;18592;49.708;10.900;2023-04-24T02:49:49;97487.81;;;16.54;46.60
21433;BME280;18592;49.708;10.900;2023-04-24T02:51:51;97490.88;;;16.52;46.84
21433;BME280;18592;49.708;10.900;2023-04-24T02:53:52;97499.94;;;16.53;46.65
21433;BME280;18592;49.708;10.900;2023-04-24T02:55:54;97496.66;;;16.51;46.74
21433;BME280;18592;49.708;10.900;2023-04-24T02:57:56;97492.28;;;16.50;46.67
21433;BME280;18592;49.708;10.900;2023-04-24T02:59:57;97489.84;;;16.48;46.67
21433;BME280;18592;49.708;10.900;2023-04-24T03:01:58;97489.84;;;16.48;46.55
21433;BME280;18592;49.708;10.900;2023-04-24T03:04:01;97496.47;;;16.47;46.71
21433;BME280;18592;49.708;10.900;2023-04-24T03:06:03;97491.59;;;16.44;46.74
21433;BME280;18592;49.708;10.900;2023-04-24T03:08:07;97489.66;;;16.45;46.88
21433;BME280;18592;49.708;10.900;2023-04-24T03:10:08;97488.06;;;16.44;46.68
21433;BME280;18592;49.708;10.900;2023-04-24T03:12:10;97485.94;;;16.41;46.61
21433;BME280;18592;49.708;10.900;2023-04-24T03:14:13;97482.34;;;16.40;46.88
21433;BME280;18592;49.708;10.900;2023-04-24T03:16:14;97487.03;;;16.40;46.80
21433;BME280;18592;49.708;10.900;2023-04-24T03:18:16;97482.16;;;16.37;46.83
21433;BME280;18592;49.708;10.900;2023-04-24T03:20:17;97482.16;;;16.37;46.44
21433;BME280;18592;49.708;10.900;2023-04-24T03:22:19;97484.41;;;16.35;46.66
21433;BME280;18592;49.708;10.900;2023-04-24T03:24:21;97479.53;;;16.32;46.69
21433;BME280;18592;49.708;10.900;2023-04-24T03:26:23;97485.03;;;16.32;46.82
21433;BME280;18592;49.708;10.900;2023-04-24T03:28:40;97482.63;;;16.30;46.68
21433;BME280;18592;49.708;10.900;2023-04-24T03:30:42;97485.69;;;16.29;46.87
21433;BME280;18592;49.708;10.900;2023-04-24T03:32:45;97497.31;;;16.26;46.86
21433;BME280;18592;49.708;10.900;2023-04-24T03:34:50;97490.19;;;16.25;46.71
21433;BME280;18592;49.708;10.900;2023-04-24T03:36:51;97491.31;;;16.24;46.55
21433;BME280;18592;49.708;10.900;2023-04-24T03:38:54;97494.38;;;16.22;46.73
21433;BME280;18592;49.708;10.900;2023-04-24T03:41:02;97491.94;;;16.21;46.85
21433;BME280;18592;49.708;10.900;2023-04-24T03:43:17;97490.63;;;16.18;46.92
21433;BME280;18592;49.708;10.900;2023-04-24T03:45:19;97489.31;;;16.16;46.83
21433;BME280;18592;49.708;10.900;2023-04-24T03:47:24;97481.06;;;16.16;46.91
21433;BME280;18592;49.708;10.900;2023-04-24T03:49:28;97491.25;;;16.15;46.56
21433;BME280;18592;49.708;10.900;2023-04-24T03:51:30;97498.19;;;16.13;46.92
21433;BME280;18592;49.708;10.900;2023-04-24T03:53:42;97495.78;;;16.11;46.80
21433;BME280;18592;49.708;10.900;2023-04-24T03:55:46;97496.06;;;16.10;46.92
21433;BME280;18592;49.708;10.900;2023-04-24T03:57:48;97493.63;;;16.08;46.94
21433;BME280;18592;49.708;10.900;2023-04-24T03:59:55;97498.94;;;16.05;47.04
21433;BME280;18592;49.708;10.900;2023-04-24T04:01:59;97493.44;;;16.05;46.84
21433;BME280;18592;49.708;10.900;2023-04-24T04:04:00;97501.69;;;16.05;46.94
21433;BME280;18592;49.708;10.900;2023-04-24T04:06:03;97488.25;;;16.03;47.08
21433;BME280;18592;49.708;10.900;2023-04-24T04:08:06;97497.63;;;16.02;46.72
21433;BME280;18592;49.708;10.900;2023-04-24T04:10:07;97492.75;;;15.99;46.91
21433;BME280;18592;49.708;10.900;2023-04-24T04:12:11;97491.94;;;15.99;46.83
21433;BME280;18592;49.708;10.900;2023-04-24T04:14:13;97487.25;;;15.99;46.72
21433;BME280;18592;49.708;10.900;2023-04-24T04:16:18;97494.19;;;15.97;46.88
21433;BME280;18592;49.708;10.900;2023-04-24T04:18:22;97489.81;;;15.96;46.92
21433;BME280;18592;49.708;10.900;2023-04-24T04:20:23;97498.06;;;15.96;46.83
21433;BME280;18592;49.708;10.900;2023-04-24T04:22:25;97497.56;;;15.94;47.10
21433;BME280;18592;49.708;10.900;2023-04-24T04:24:27;97497.88;;;15.92;47.07
21433;BME280;18592;49.708;10.900;2023-04-24T04:26:32;97497.56;;;15.94;47.35
21433;BME280;18592;49.708;10.900;2023-04-24T04:28:39;97498.19;;;15.91;47.08
21433;BME280;18592;49.708;10.900;2023-04-24T04:30:41;97506.72;;;15.89;47.10
21433;BME280;18592;49.708;10.900;2023-04-24T04:32:42;97510.28;;;15.89;47.20
21433;BME280;18592;49.708;10.900;2023-04-24T04:34:44;97504.63;;;15.86;47.20
21433;BME280;18592;49.708;10.900;2023-04-24T04:36:46;97508.97;;;15.87;47.24
21433;BME280;18592;49.708;10.900;2023-04-24T04:38:59;97508.47;;;15.85;47.00
21433;BME280;18592;49.708;10.900;2023-04-24T04:41:18;97501.34;;;15.84;47.14
21433;BME280;18592;49.708;10.900;2023-04-24T04:43:20;97508.28;;;15.81;47.30
21433;BME280;18592;49.708;10.900;2023-04-24T04:45:25;97501.19;;;15.80;47.15
21433;BME280;18592;49.708;10.900;2023-04-24T04:47:48;97504.22;;;15.79;47.23
21433;BME280;18592;49.708;10.900;2023-04-24T04:49:50;97506.97;;;15.79;47.33
21433;BME280;18592;49.708;10.900;2023-04-24T04:52:01;97497.94;;;15.78;47.51
21433;BME280;18592;49.708;10.900;2023-04-24T04:54:03;97501.78;;;15.77;47.65
21433;BME280;18592;49.708;10.900;2023-04-24T04:56:05;97499.88;;;15.78;48.14
21433;BME280;18592;49.708;10.900;2023-04-24T04:58:11;97506.19;;;15.78;48.24
21433;BME280;18592;49.708;10.900;2023-04-24T05:00:13;97510.53;;;15.79;48.47
21433;BME280;18592;49.708;10.900;2023-04-24T05:02:21;97511.66;;;15.78;48.63
21433;BME280;18592;49.708;10.900;2023-04-24T05:04:23;97516.03;;;15.79;48.51
21433;BME280;18592;49.708;10.900;2023-04-24T05:06:25;97513.28;;;15.79;48.93
21433;BME280;18592;49.708;10.900;2023-04-24T05:08:28;97513.28;;;15.79;48.72
21433;BME280;18592;49.708;10.900;2023-04-24T05:10:30;97519.28;;;15.81;49.08
21433;BME280;18592;49.708;10.900;2023-04-24T05:12:32;97516.53;;;15.81;49.09
21433;BME280;18592;49.708;10.900;2023-04-24T05:14:35;97522.84;;;15.82;49.03
21433;BME280;18592;49.708;10.900;2023-04-24T05:16:36;97530.25;;;15.81;49.25
21433;BME280;18592;49.708;10.900;2023-04-24T05:18:39;97524.47;;;15.83;49.19
21433;BME280;18592;49.708;10.900;2023-04-24T05:20:43;97531.56;;;15.84;49.46
21433;BME280;18592;49.708;10.900;2023-04-24T05:22:45;97530.47;;;15.85;49.35
21433;BME280;18592;49.708;10.900;2023-04-24T05:24:48;97548.59;;;15.86;49.34
21433;BME280;18592;49.708;10.900;2023-04-24T05:27:09;97537.28;;;15.87;49.35
21433;BME280;18592;49.708;10.900;2023-04-24T05:29:14;97528.72;;;15.89;49.36
21433;BME280;18592;49.708;10.900;2023-04-24T05:31:16;97539.41;;;15.91;49.49
21433;BME280;18592;49.708;10.900;2023-04-24T05:33:19;97539.91;;;15.93;49.42
21433;BME280;18592;49.708;10.900;2023-04-24T05:35:20;97548.16;;;15.93;49.38
21433;BME280;18592;49.708;10.900;2023-04-24T05:37:22;97554.47;;;15.93;49.88
21433;BME280;18592;49.708;10.900;2023-04-24T05:39:23;97554.97;;;15.95;49.66
21433;BME280;18592;49.708;10.900;2023-04-24T05:41:27;97551.41;;;15.95;49.62
21433;BME280;18592;49.708;10.900;2023-04-24T05:43:28;97556.91;;;15.95;49.39
21433;BME280;18592;49.708;10.900;2023-04-24T05:45:30;97559.34;;;15.96;49.81
21433;BME280;18592;49.708;10.900;2023-04-24T05:47:33;97560.97;;;15.97;49.78
21433;BME280;18592;49.708;10.900;2023-04-24T05:49:34;97552.72;;;15.97;49.82
21433;BME280;18592;49.708;10.900;2023-04-24T05:51:36;97549.16;;;15.97;49.79
21433;BME280;18592;49.708;10.900;2023-04-24T05:53:38;97561.97;;;16.01;49.76
21433;BME280;18592;49.708;10.900;2023-04-24T05:55:40;97553.75;;;16.01;49.82
21433;BME280;18592;49.708;10.900;2023-04-24T05:57:41;97555.06;;;16.04;49.75
21433;BME280;18592;49.708;10.900;2023-04-24T05:59:43;97555.84;;;16.04;49.92
21433;BME280;18592;49.708;10.900;2023-04-24T06:01:45;97556.66;;;16.05;49.88
21433;BME280;18592;49.708;10.900;2023-04-24T06:03:53;97561.06;;;16.06;49.62
21433;BME280;18592;49.708;10.900;2023-04-24T06:05:55;97558.31;;;16.06;49.38
21433;BME280;18592;49.708;10.900;2023-04-24T06:07:57;97573.38;;;16.08;49.31
21433;BME280;18592;49.708;10.900;2023-04-24T06:10:03;97565.13;;;16.08;49.25
21433;BME280;18592;49.708;10.900;2023-04-24T06:12:12;97578.84;;;16.08;49.12
21433;BME280;18592;49.708;10.900;2023-04-24T06:14:34;97578.38;;;16.06;49.33
21433;BME280;18592;49.708;10.900;2023-04-24T06:16:52;97584.66;;;16.07;49.21
21433;BME280;18592;49.708;10.900;2023-04-24T06:19:06;97586.59;;;16.06;49.31
21433;BME280;18592;49.708;10.900;2023-04-24T06:21:09;97606.66;;;16.07;49.09
21433;BME280;18592;49.708;10.900;2023-04-24T06:23:11;97601.47;;;16.05;49.11
21433;BME280;18592;49.708;10.900;2023-04-24T06:25:12;97595.66;;;16.07;49.04
21433;BME280;18592;49.708;10.900;2023-04-24T06:27:14;97588.22;;;16.07;48.88
21433;BME280;18592;49.708;10.900;2023-04-24T06:29:16;97594.03;;;16.06;48.82
21433;BME280;18592;49.708;10.900;2023-04-24T06:31:17;97595.16;;;16.05;48.76
21433;BME280;18592;49.708;10.900;2023-04-24T06:33:19;97594.66;;;16.03;48.35
21433;BME280;18592;49.708;10.900;2023-04-24T06:35:24;97601.56;;;16.00;48.74
21433;BME280;18592;49.708;10.900;2023-04-24T06:37:25;97600.47;;;16.01;48.65
21433;BME280;18592;49.708;10.900;2023-04-24T06:39:27;97605.66;;;16.03;48.56
21433;BME280;18592;49.708;10.900;2023-04-24T06:41:28;97611.16;;;16.03;48.39
21433;BME280;18592;49.708;10.900;2023-04-24T06:43:31;97609.50;;;16.02;48.62
21433;BME280;18592;49.708;10.900;2023-04-24T06:45:32;97607.91;;;16.01;48.49
21433;BME280;18592;49.708;10.900;2023-04-24T06:47:34;97604.31;;;16.00;48.63
21433;BME280;18592;49.708;10.900;2023-04-24T06:49:39;97614.00;;;15.98;48.41
21433;BME280;18592;49.708;10.900;2023-04-24T06:51:41;97612.06;;;15.98;48.59
21433;BME280;18592;49.708;10.900;2023-04-24T06:53:42;97605.75;;;15.98;48.50
21433;BME280;18592;49.708;10.900;2023-04-24T06:55:44;97602.69;;;15.99;48.32
21433;BME280;18592;49.708;10.900;2023-04-24T06:57:47;97611.75;;;16.00;48.23
21433;BME280;18592;49.708;10.900;2023-04-24T06:59:48;97610.66;;;16.01;48.29
21433;BME280;18592;49.708;10.900;2023-04-24T07:01:50;97602.41;;;16.01;48.43
21433;BME280;18592;49.708;10.900;2023-04-24T07:03:56;97613.06;;;16.02;48.13
21433;BME280;18592;49.708;10.900;2023-04-24T07:05:57;97625.22;;;16.01;48.36
21433;BME280;18592;49.708;10.900;2023-04-24T07:07:59;97624.88;;;16.03;48.31
21433;BME280;18592;49.708;10.900;2023-04-24T07:10:01;97622.13;;;16.03;48.37
21433;BME280;18592;49.708;10.900;2023-04-24T07:12:05;97616.31;;;16.04;48.25
21433;BME280;18592;49.708;10.900;2023-04-24T07:14:07;97626.22;;;16.05;48.44
21433;BME280;18592;49.708;10.900;2023-04-24T07:16:09;97640.78;;;16.06;48.17
21433;BME280;18592;49.708;10.900;2023-04-24T07:18:13;97631.91;;;16.09;48.75
21433;BME280;18592;49.708;10.900;2023-04-24T07:20:15;97638.41;;;16.13;48.99
21433;BME280;18592;49.708;10.900;2023-04-24T07:22:17;97634.94;;;16.21;49.09
21433;BME280;18592;49.708;10.900;2023-04-24T07:24:18;97634.00;;;16.25;49.17
21433;BME280;18592;49.708;10.900;2023-04-24T07:26:23;97632.94;;;16.35;49.11
21433;BME280;18592;49.708;10.900;2023-04-24T07:28:24;97641.56;;;16.42;49.40
21433;BME280;18592;49.708;10.900;2023-04-24T07:30:26;97634.22;;;16.51;49.41
21433;BME280;18592;49.708;10.900;2023-04-24T07:32:30;97635.13;;;16.60;49.25
21433;BME280;18592;49.708;10.900;2023-04-24T07:34:31;97632.72;;;16.67;49.12
21433;BME280;18592;49.708;10.900;2023-04-24T07:36:33;97631.50;;;16.73;48.99
21433;BME280;18592;49.708;10.900;2023-04-24T07:38:34;97635.25;;;16.77;48.76
21433;BME280;18592;49.708;10.900;2023-04-24T07:40:36;97643.06;;;16.84;48.65
21433;BME280;18592;49.708;10.900;2023-04-24T07:42:38;97648.25;;;16.85;48.39
21433;BME280;18592;49.708;10.900;2023-04-24T07:44:39;97642.75;;;16.85;48.33
21433;BME280;18592;49.708;10.900;2023-04-24T07:46:41;97635.00;;;16.87;48.36
21433;BME280;18592;49.708;10.900;2023-04-24T07:48:42;97641.50;;;16.91;48.36
21433;BME280;18592;49.708;10.900;2023-04-24T07:50:44;97647.38;;;16.98;48.41
21433;BME280;18592;49.708;10.900;2023-04-24T07:52:46;97634.47;;;17.07;48.21
21433;BME280;18592;49.708;10.900;2023-04-24T07:54:48;97634.38;;;17.21;48.77
21433;BME280;18592;49.708;10.900;2023-04-24T07:56:50;97638.66;;;17.36;48.81
21433;BME280;18592;49.708;10.900;2023-04-24T07:58:52;97637.09;;;17.52;49.02
21433;BME280;18592;49.708;10.900;2023-04-24T08:00:53;97639.94;;;17.69;48.99
21433;BME280;18592;49.708;10.900;2023-04-24T08:02:55;97650.72;;;17.88;48.81
21433;BME280;18592;49.708;10.900;2023-04-24T08:04:57;97652.22;;;18.02;48.34
21433;BME280;18592;49.708;10.900;2023-04-24T08:07:00;97659.22;;;18.17;47.87
21433;BME280;18592;49.708;10.900;2023-04-24T08:09:02;97663.78;;;18.30;47.79
21433;BME280;18592;49.708;10.900;2023-04-24T08:11:04;97666.22;;;18.40;47.78
21433;BME280;18592;49.708;10.900;2023-04-24T08:13:05;97660.75;;;18.49;47.28
21433;BME280;18592;49.708;10.900;2023-04-24T08:15:07;97667.72;;;18.55;47.21
21433;BME280;18592;49.708;10.900;2023-04-24T08:17:09;97672.28;;;18.59;47.03
21433;BME280;18592;49.708;10.900;2023-04-24T08:19:11;97670.50;;;18.63;46.95
21433;BME280;18592;49.708;10.900;2023-04-24T08:21:12;97671.47;;;18.67;46.73
21433;BME280;18592;49.708;10.900;2023-04-24T08:23:18;97665.28;;;18.70;46.68
21433;BME280;18592;49.708;10.900;2023-04-24T08:25:19;97680.88;;;18.75;46.62
21433;BME280;18592;49.708;10.900;2023-04-24T08:27:21;97681.88;;;18.79;46.56
21433;BME280;18592;49.708;10.900;2023-04-24T08:29:23;97684.28;;;18.80;46.61
21433;BME280;18592;49.708;10.900;2023-04-24T08:31:24;97694.34;;;18.85;46.40
21433;BME280;18592;49.708;10.900;2023-04-24T08:33:27;97693.22;;;18.86;45.69
21433;BME280;18592;49.708;10.900;2023-04-24T08:35:34;97692.09;;;18.87;45.72
21433;BME280;18592;49.708;10.900;2023-04-24T08:37:36;97690.47;;;18.86;45.40
21433;BME280;18592;49.708;10.900;2023-04-24T08:39:37;97696.31;;;18.84;45.45
21433;BME280;18592;49.708;10.900;2023-04-24T08:41:41;97692.75;;;18.84;44.93
21433;BME280;18592;49.708;10.900;2023-04-24T08:43:46;97695.03;;;18.82;44.89
21433;BME280;18592;49.708;10.900;2023-04-24T08:45:47;97696.78;;;18.78;44.90
21433;BME280;18592;49.708;10.900;2023-04-24T08:47:49;97693.56;;;18.76;44.88
21433;BME280;18592;49.708;10.900;2023-04-24T08:49:51;97691.13;;;18.74;45.09
21433;BME280;18592;49.708;10.900;2023-04-24T08:51:54;97694.53;;;18.71;44.95
21433;BME280;18592;49.708;10.900;2023-04-24T08:53:56;97692.06;;;18.70;44.76
21433;BME280;18592;49.708;10.900;2023-04-24T08:56:00;97696.00;;;18.69;44.78
21433;BME280;18592;49.708;10.900;2023-04-24T08:58:02;97692.75;;;18.67;44.86
21433;BME280;18592;49.708;10.900;2023-04-24T09:00:06;97696.47;;;18.62;44.90
21433;BME280;18592;49.708;10.900;2023-04-24T09:02:13;97694.03;;;18.61;44.76
21433;BME280;18592;49.708;10.900;2023-04-24T09:04:15;97687.22;;;18.58;44.69
21433;BME280;18592;49.708;10.900;2023-04-24T09:06:21;97684.28;;;18.55;44.62
21433;BME280;18592;49.708;10.900;2023-04-24T09:08:24;97681.22;;;18.56;44.58
21433;BME280;18592;49.708;10.900;2023-04-24T09:10:26;97698.09;;;18.55;44.59
21433;BME280;18592;49.708;10.900;2023-04-24T09:12:28;97695.31;;;18.55;44.36
21433;BME280;18592;49.708;10.900;2023-04-24T09:14:31;97683.50;;;18.54;44.35
21433;BME280;18592;49.708;10.900;2023-04-24T09:16:33;97690.94;;;18.54;44.45
21433;BME280;18592;49.708;10.900;2023-04-24T09:18:37;97699.72;;;18.56;44.29
21433;BME280;18592;49.708;10.900;2023-04-24T09:21:02;97683.34;;;18.59;44.54
21433;BME280;18592;49.708;10.900;2023-04-24T09:23:04;97685.94;;;18.64;44.55
21433;BME280;18592;49.708;10.900;2023-04-24T09:25:07;97682.84;;;18.66;44.62
21433;BME280;18592;49.708;10.900;2023-04-24T09:27:11;97689.31;;;18.70;44.45
21433;BME280;18592;49.708;10.900;2023-04-24T09:29:16;97689.00;;;18.71;44.47
21433;BME280;18592;49.708;10.900;2023-04-24T09:31:19;97680.25;;;18.69;44.40
21433;BME280;18592;49.708;10.900;2023-04-24T09:33:23;97676.34;;;18.70;44.20
21433;BME280;18592;49.708;10.900;2023-04-24T09:35:24;97678.44;;;18.73;44.02
21433;BME280;18592;49.708;10.900;2023-04-24T09:37:28;97677.47;;;18.78;44.01
21433;BME280;18592;49.708;10.900;2023-04-24T09:39:30;97672.94;;;18.82;43.80
21433;BME280;18592;49.708;10.900;2023-04-24T09:41:32;97672.09;;;18.90;43.83
21433;BME280;18592;49.708;10.900;2023-04-24T09:43:34;97667.38;;;18.99;43.56
21433;BME280;18592;49.708;10.900;2023-04-24T09:45:38;97663.81;;;19.07;43.66
21433;BME280;18592;49.708;10.900;2023-04-24T09:47:41;97671.25;;;19.15;43.25
21433;BME280;18592;49.708;10.900;2023-04-24T09:49:43;97668.47;;;19.24;43.42
21433;BME280;18592;49.708;10.900;2023-04-24T09:51:45;97670.41;;;19.32;43.03
21433;BME280;18592;49.708;10.900;2023-04-24T09:53:47;97679.84;;;19.39;42.80
21433;BME280;18592;49.708;10.900;2023-04-24T09:55:56;97681.63;;;19.44;42.08
21433;BME280;18592;49.708;10.900;2023-04-24T09:58:02;97682.44;;;19.44;42.05
21433;BME280;18592;49.708;10.900;2023-04-24T10:00:07;97689.09;;;19.43;41.69
21433;BME280;18592;49.708;10.900;2023-04-24T10:02:19;97682.63;;;19.39;40.92
21433;BME280;18592;49.708;10.900;2023-04-24T10:04:26;97692.03;;;19.38;41.34
21433;BME280;18592;49.708;10.900;2023-04-24T10:06:33;97702.09;;;19.34;41.19
21433;BME280;18592;49.708;10.900;2023-04-24T10:08:36;97701.94;;;19.31;41.33
21433;BME280;18592;49.708;10.900;2023-04-24T10:10:44;97717.09;;;19.25;41.40
21433;BME280;18592;49.708;10.900;2023-04-24T10:12:46;97735.28;;;19.17;41.40
21433;BME280;18592;49.708;10.900;2023-04-24T10:14:49;97746.50;;;19.12;41.77
21433;BME280;18592;49.708;10.900;2023-04-24T10:16:53;97750.56;;;19.06;42.11
21433;BME280;18592;49.708;10.900;2023-04-24T10:18:58;97754.63;;;19.00;42.07
21433;BME280;18592;49.708;10.900;2023-04-24T10:21:00;97753.81;;;18.91;41.98
21433;BME280;18592;49.708;10.900;2023-04-24T10:23:04;97745.22;;;18.84;41.75
21433;BME280;18592;49.708;10.900;2023-04-24T10:25:06;97750.72;;;18.75;42.11
21433;BME280;18592;49.708;10.900;2023-04-24T10:27:09;97756.72;;;18.69;41.95
21433;BME280;18592;49.708;10.900;2023-04-24T10:29:12;97755.88;;;18.60;42.14
21433;BME280;18592;49.708;10.900;2023-04-24T10:31:14;97750.22;;;18.56;42.15
21433;BME280;18592;49.708;10.900;2023-04-24T10:33:16;97751.34;;;18.55;42.59
21433;BME280;18592;49.708;10.900;2023-04-24T10:35:19;97754.44;;;18.54;42.09
21433;BME280;18592;49.708;10.900;2023-04-24T10:37:25;97758.31;;;18.53;42.12
21433;BME280;18592;49.708;10.900;2023-04-24T10:39:27;97758.16;;;18.49;42.00
21433;BME280;18592;49.708;10.900;2023-04-24T10:41:30;97763.47;;;18.46;42.28
21433;BME280;18592;49.708;10.900;2023-04-24T10:43:33;97765.75;;;18.44;42.36